Terminal Aerodrome Forecast
Issued by NWS Cleveland, OH

Home | Current Version | Previous Version | Graphics & Text | Print | Product List | Glossary On
Versions: 1 2 3 4 5 6 7 8 9 10 11 12 13 14 15
899
FTUS41 KCLE 211120
TAFCAK
TAF
KCAK 211120Z 2112/2212 21005KT 3/4SM BR OVC003
      TEMPO 2112/2116 1/4SM -DZ FG VV001
     FM211800 19005KT 3SM BR OVC006
     FM220200 20007KT 3SM BR OVC003
     FM221100 18007KT 3SM BR OVC015=

USA.gov is the U.S. government's official web portal to all federal, state and local government web resources and services.